Mazong Shan, China
Current Conditions -  °F | °C
As of 2:30 PM on Thursday 27 Nov 2014 (Local Time) from ZWWW Reporting Station
Clear Clear  
Wind Chill:   Ceiling: Unl
Heat Index: 18°   Visibility: 4mi
Dew Point:   Wind: 7mph
Humidity: 68%   Direction: 290°WNW
Pressure: 29.97"   Gusts: NA
Location:  41.8°N, 97.03°E
Report Text: ZWWW 270630Z 29003MPS 260V320 7000 NSC M08/M13 Q1015 NOSIG
Loading
Personal Weather Stations






























Interactive Weather Map New forecast layout! Learn more

10-Day Weather Forecast

Advertisements
Track Severe Weather on mobile